Time;durP1;ratioP1;P1;durP2;ratioP2;P2;SDS_P1;SDS_P2;PMS_P1;PMS_P2;Temp;Humidity;BMP_temperature;BMP_pressure;BME280_temperature;BME280_humidity;BME280_pressure;Samples;Min_cycle;Max_cycle;Signal;HPM_P1;HPM_P2
2022/03/05 00:00:08;;;;;;;0.27;0.27;;;;;;;;;;4939158;28;20218;-72
2022/03/05 00:02:35;;;;;;;0.50;0.50;;;;;;;;;;4937565;28;20207;-70
2022/03/05 00:05:04;;;;;;;0.20;0.20;;;;;;;;;;4940607;28;20203;-70
2022/03/05 00:07:33;;;;;;;0.00;0.00;;;;;;;;;;4940756;28;20203;-70
2022/03/05 00:10:00;;;;;;;0.00;0.00;;;;;;;;;;4939782;28;20236;-72
2022/03/05 00:12:28;;;;;;;0.00;0.00;;;;;;;;;;4939916;28;20211;-71
2022/03/05 00:14:56;;;;;;;0.00;0.00;;;;;;;;;;4939964;28;20211;-72
2022/03/05 00:17:23;;;;;;;0.00;0.00;;;;;;;;;;4940365;28;20199;-71
2022/03/05 00:19:51;;;;;;;0.00;0.00;;;;;;;;;;4939453;28;20206;-71
2022/03/05 00:22:18;;;;;;;0.00;0.00;;;;;;;;;;4939431;28;20279;-72
2022/03/05 00:24:47;;;;;;;0.00;0.00;;;;;;;;;;4938374;28;20818;-71
2022/03/05 00:27:14;;;;;;;0.13;0.13;;;;;;;;;;4938631;28;20245;-70
2022/03/05 00:29:41;;;;;;;0.30;0.27;;;;;;;;;;4940373;28;20207;-72
2022/03/05 00:32:09;;;;;;;0.00;0.00;;;;;;;;;;4938273;28;20206;-71
2022/03/05 00:34:36;;;;;;;0.07;0.07;;;;;;;;;;4937019;28;20227;-71
2022/03/05 00:37:05;;;;;;;1.80;1.70;;;;;;;;;;4939859;28;20544;-71
2022/03/05 00:39:32;;;;;;;2.00;1.20;;;;;;;;;;4940746;28;20206;-72
2022/03/05 00:42:01;;;;;;;0.00;0.00;;;;;;;;;;4938729;28;20207;-71
2022/03/05 00:44:29;;;;;;;0.00;0.00;;;;;;;;;;4939010;28;20202;-71
2022/03/05 00:46:57;;;;;;;0.00;0.00;;;;;;;;;;4939712;28;20956;-72
2022/03/05 00:49:25;;;;;;;0.00;0.00;;;;;;;;;;4938253;28;20204;-72
2022/03/05 00:51:53;;;;;;;0.00;0.00;;;;;;;;;;4937944;28;20203;-72
2022/03/05 00:54:21;;;;;;;0.13;0.13;;;;;;;;;;4943455;28;20234;-71
2022/03/05 00:56:48;;;;;;;0.00;0.00;;;;;;;;;;4940061;28;20633;-70
2022/03/05 00:59:17;;;;;;;0.00;0.00;;;;;;;;;;4940947;28;20207;-72
2022/03/05 01:01:44;;;;;;;0.30;0.30;;;;;;;;;;4944460;28;20214;-71
2022/03/05 01:04:12;;;;;;;0.00;0.00;;;;;;;;;;4944040;28;20265;-73
2022/03/05 01:06:39;;;;;;;0.00;0.00;;;;;;;;;;4943459;28;20235;-73
2022/03/05 01:09:07;;;;;;;0.00;0.00;;;;;;;;;;4937861;28;20211;-73
2022/03/05 01:11:34;;;;;;;0.00;0.00;;;;;;;;;;4942876;28;20202;-71
2022/03/05 01:14:02;;;;;;;0.00;0.00;;;;;;;;;;4944583;28;21027;-73
2022/03/05 01:16:31;;;;;;;0.00;0.00;;;;;;;;;;4939264;28;20211;-71
2022/03/05 01:18:58;;;;;;;0.00;0.00;;;;;;;;;;4939381;28;20218;-71
2022/03/05 01:21:27;;;;;;;0.00;0.00;;;;;;;;;;4936131;28;20712;-71
2022/03/05 01:23:55;;;;;;;1.10;0.67;;;;;;;;;;4935624;28;20234;-72
2022/03/05 01:26:22;;;;;;;0.00;0.00;;;;;;;;;;4937689;28;20203;-70
2022/03/05 01:28:49;;;;;;;0.00;0.00;;;;;;;;;;4938790;28;20216;-70
2022/03/05 01:31:17;;;;;;;1.00;0.40;;;;;;;;;;4940505;28;20202;-70
2022/03/05 01:33:46;;;;;;;0.00;0.00;;;;;;;;;;4938055;28;20230;-70
2022/03/05 01:36:13;;;;;;;0.00;0.00;;;;;;;;;;4936806;28;20195;-70
2022/03/05 01:38:40;;;;;;;0.03;0.03;;;;;;;;;;4938881;28;20547;-70
2022/03/05 01:41:08;;;;;;;0.13;0.13;;;;;;;;;;4936681;28;20199;-71
2022/03/05 01:43:35;;;;;;;0.03;0.03;;;;;;;;;;4939436;28;20660;-72
2022/03/05 01:46:03;;;;;;;3.13;1.23;;;;;;;;;;4935998;28;20207;-70
2022/03/05 01:48:30;;;;;;;0.00;0.00;;;;;;;;;;4937367;28;20211;-72
2022/03/05 01:50:59;;;;;;;0.00;0.00;;;;;;;;;;4936374;28;20196;-71
2022/03/05 01:53:26;;;;;;;0.00;0.00;;;;;;;;;;4937946;28;20219;-70
2022/03/05 01:55:54;;;;;;;0.00;0.00;;;;;;;;;;4937143;28;20214;-70
2022/03/05 01:58:22;;;;;;;0.40;0.40;;;;;;;;;;4936998;28;20207;-70
2022/03/05 02:00:49;;;;;;;0.00;0.00;;;;;;;;;;4937431;28;20211;-70
2022/03/05 02:03:16;;;;;;;0.00;0.00;;;;;;;;;;4938589;28;20232;-70
2022/03/05 02:05:44;;;;;;;0.00;0.00;;;;;;;;;;4937026;28;20199;-70
2022/03/05 02:08:13;;;;;;;0.00;0.00;;;;;;;;;;4936190;28;20207;-70
2022/03/05 02:10:42;;;;;;;1.50;1.40;;;;;;;;;;4937855;28;20191;-71
2022/03/05 02:13:09;;;;;;;0.00;0.00;;;;;;;;;;4934626;28;20345;-71
2022/03/05 02:15:36;;;;;;;0.83;0.83;;;;;;;;;;4936995;28;20663;-70
2022/03/05 02:18:04;;;;;;;0.10;0.10;;;;;;;;;;4935429;28;20214;-73
2022/03/05 02:20:33;;;;;;;0.00;0.00;;;;;;;;;;4937001;28;20537;-70
2022/03/05 02:23:00;;;;;;;0.00;0.00;;;;;;;;;;4936778;28;20211;-71
2022/03/05 02:25:27;;;;;;;0.10;0.10;;;;;;;;;;4938644;28;20207;-71
2022/03/05 02:27:57;;;;;;;0.83;0.13;;;;;;;;;;4936796;28;20207;-72
2022/03/05 02:30:24;;;;;;;0.60;0.60;;;;;;;;;;4938037;28;20214;-71
2022/03/05 02:32:52;;;;;;;0.00;0.00;;;;;;;;;;4936049;28;20206;-71
2022/03/05 02:35:19;;;;;;;0.10;0.10;;;;;;;;;;4936673;28;21170;-71
2022/03/05 02:37:48;;;;;;;0.00;0.00;;;;;;;;;;4937246;28;20195;-72
2022/03/05 02:40:15;;;;;;;0.00;0.00;;;;;;;;;;4938490;28;20212;-70
2022/03/05 02:42:43;;;;;;;0.00;0.00;;;;;;;;;;4937833;28;20195;-70
2022/03/05 02:45:10;;;;;;;0.00;0.00;;;;;;;;;;4935560;28;20209;-71
2022/03/05 02:47:38;;;;;;;0.00;0.00;;;;;;;;;;4936067;28;20672;-70
2022/03/05 02:50:05;;;;;;;0.00;0.00;;;;;;;;;;4935878;28;20584;-70
2022/03/05 02:52:33;;;;;;;0.00;0.00;;;;;;;;;;4937423;28;20203;-70
2022/03/05 02:55:02;;;;;;;0.20;0.20;;;;;;;;;;4935800;28;20298;-71
2022/03/05 02:57:29;;;;;;;0.10;0.10;;;;;;;;;;4934445;28;20210;-70
2022/03/05 02:59:56;;;;;;;0.00;0.00;;;;;;;;;;4939052;28;20195;-70
2022/03/05 03:02:24;;;;;;;0.00;0.00;;;;;;;;;;4935424;28;20187;-70
2022/03/05 03:04:51;;;;;;;0.00;0.00;;;;;;;;;;4937030;28;20214;-70
2022/03/05 03:07:18;;;;;;;0.00;0.00;;;;;;;;;;4934763;28;20882;-72
2022/03/05 03:09:46;;;;;;;0.47;0.33;;;;;;;;;;4937202;28;20673;-73
2022/03/05 03:12:15;;;;;;;0.00;0.00;;;;;;;;;;4935210;28;20576;-72
2022/03/05 03:14:42;;;;;;;0.27;0.20;;;;;;;;;;4935326;28;20230;-71
2022/03/05 03:17:10;;;;;;;0.73;0.73;;;;;;;;;;4933202;28;20665;-71
2022/03/05 03:19:38;;;;;;;0.00;0.00;;;;;;;;;;4934667;28;20210;-72
2022/03/05 03:22:06;;;;;;;0.00;0.00;;;;;;;;;;4934609;28;20208;-71
2022/03/05 03:24:33;;;;;;;0.47;0.47;;;;;;;;;;4935267;28;20211;-70
2022/03/05 03:27:01;;;;;;;0.00;0.00;;;;;;;;;;4935751;28;22056;-73
2022/03/05 03:29:29;;;;;;;0.00;0.00;;;;;;;;;;4936519;28;20654;-70
2022/03/05 03:31:57;;;;;;;0.00;0.00;;;;;;;;;;4935561;28;20210;-70
2022/03/05 03:34:24;;;;;;;0.00;0.00;;;;;;;;;;4936366;28;20233;-70
2022/03/05 03:36:52;;;;;;;0.00;0.00;;;;;;;;;;4937071;28;20202;-69
2022/03/05 03:39:19;;;;;;;0.00;0.00;;;;;;;;;;4933912;28;20199;-71
2022/03/05 03:41:46;;;;;;;0.00;0.00;;;;;;;;;;4935065;28;20211;-71
2022/03/05 03:44:14;;;;;;;0.07;0.07;;;;;;;;;;4936869;28;20676;-71
2022/03/05 03:46:42;;;;;;;0.17;0.17;;;;;;;;;;4935958;28;20211;-71
2022/03/05 03:49:10;;;;;;;0.57;0.30;;;;;;;;;;4934226;28;20204;-70
2022/03/05 03:51:37;;;;;;;0.70;0.57;;;;;;;;;;4935646;28;20206;-71
2022/03/05 03:54:04;;;;;;;0.73;0.73;;;;;;;;;;4934898;28;20234;-70
2022/03/05 03:56:32;;;;;;;0.43;0.43;;;;;;;;;;4935328;28;20207;-70
2022/03/05 03:59:00;;;;;;;0.00;0.00;;;;;;;;;;4936853;28;20548;-70
2022/03/05 04:01:27;;;;;;;0.07;0.07;;;;;;;;;;4935635;28;20210;-69
2022/03/05 04:03:56;;;;;;;0.37;0.37;;;;;;;;;;4936203;28;20210;-70
2022/03/05 04:06:23;;;;;;;0.77;0.77;;;;;;;;;;4934580;28;20211;-70
2022/03/05 04:08:49;;;;;;;0.30;0.13;;;;;;;;;;4936046;28;20581;-71
2022/03/05 04:11:19;;;;;;;1.60;1.53;;;;;;;;;;4936967;28;20199;-71
2022/03/05 04:13:47;;;;;;;0.10;0.10;;;;;;;;;;4936331;28;20206;-69
2022/03/05 04:16:14;;;;;;;0.77;0.77;;;;;;;;;;4939343;28;20203;-71
2022/03/05 04:18:43;;;;;;;0.47;0.47;;;;;;;;;;4940768;28;20191;-72
2022/03/05 04:21:12;;;;;;;0.00;0.00;;;;;;;;;;4936859;28;20219;-69
2022/03/05 04:23:39;;;;;;;0.17;0.17;;;;;;;;;;4938876;28;21097;-70
2022/03/05 04:26:06;;;;;;;1.90;0.77;;;;;;;;;;4938818;28;20679;-70
2022/03/05 04:28:34;;;;;;;0.00;0.00;;;;;;;;;;4936988;28;20200;-71
2022/03/05 04:31:01;;;;;;;0.00;0.00;;;;;;;;;;4936673;28;20202;-71
2022/03/05 04:33:28;;;;;;;0.00;0.00;;;;;;;;;;4938815;28;20203;-72
2022/03/05 04:35:56;;;;;;;0.00;0.00;;;;;;;;;;4940684;28;21243;-71
2022/03/05 04:38:24;;;;;;;0.50;0.50;;;;;;;;;;4937860;28;20575;-69
2022/03/05 04:40:52;;;;;;;0.00;0.00;;;;;;;;;;4939718;28;20211;-70
2022/03/05 04:43:19;;;;;;;0.00;0.00;;;;;;;;;;4938538;28;20343;-70
2022/03/05 04:45:47;;;;;;;0.23;0.23;;;;;;;;;;4939361;28;20203;-70
2022/03/05 04:48:14;;;;;;;0.00;0.00;;;;;;;;;;4939431;28;20202;-70
2022/03/05 04:50:41;;;;;;;1.90;1.80;;;;;;;;;;4937769;28;20202;-72
2022/03/05 04:53:09;;;;;;;0.33;0.23;;;;;;;;;;4936994;28;20607;-71
2022/03/05 04:55:38;;;;;;;9.40;5.77;;;;;;;;;;4937151;28;20230;-71
2022/03/05 04:58:05;;;;;;;0.13;0.13;;;;;;;;;;4938957;28;20210;-71
2022/03/05 05:00:32;;;;;;;0.10;0.10;;;;;;;;;;4939613;28;20555;-71
2022/03/05 05:03:00;;;;;;;0.23;0.23;;;;;;;;;;4938174;28;20203;-72
2022/03/05 05:05:27;;;;;;;0.10;0.10;;;;;;;;;;4940684;28;20549;-71
2022/03/05 05:07:54;;;;;;;0.00;0.00;;;;;;;;;;4937878;28;20706;-70
2022/03/05 05:10:22;;;;;;;0.00;0.00;;;;;;;;;;4937910;28;20209;-70
2022/03/05 05:12:51;;;;;;;0.63;0.10;;;;;;;;;;4938867;28;20207;-72
2022/03/05 05:15:18;;;;;;;0.80;0.67;;;;;;;;;;4938123;28;20292;-70
2022/03/05 05:17:46;;;;;;;0.00;0.00;;;;;;;;;;4937539;28;20588;-72
2022/03/05 05:20:13;;;;;;;0.93;0.93;;;;;;;;;;4938510;28;20542;-72
2022/03/05 05:22:40;;;;;;;0.37;0.37;;;;;;;;;;4938127;28;20211;-71
2022/03/05 05:25:08;;;;;;;0.00;0.00;;;;;;;;;;4939799;28;20692;-70
2022/03/05 05:27:37;;;;;;;0.00;0.00;;;;;;;;;;4937122;28;20214;-70
2022/03/05 05:30:07;;;;;;;0.00;0.00;;;;;;;;;;4936055;28;20222;-71
2022/03/05 05:32:35;;;;;;;0.00;0.00;;;;;;;;;;4938728;28;20511;-71
2022/03/05 05:35:02;;;;;;;0.00;0.00;;;;;;;;;;4940127;28;20214;-71
2022/03/05 05:37:30;;;;;;;0.00;0.00;;;;;;;;;;4938636;28;20203;-69
2022/03/05 05:39:57;;;;;;;0.10;0.10;;;;;;;;;;4937342;28;20226;-71
2022/03/05 05:42:24;;;;;;;0.00;0.00;;;;;;;;;;4937919;28;20539;-71
2022/03/05 05:44:52;;;;;;;0.00;0.00;;;;;;;;;;4936786;28;20195;-71
2022/03/05 05:47:21;;;;;;;0.00;0.00;;;;;;;;;;4934953;28;20874;-71
2022/03/05 05:49:50;;;;;;;0.43;0.43;;;;;;;;;;4944031;28;20215;-71
2022/03/05 05:52:18;;;;;;;0.23;0.23;;;;;;;;;;4945408;28;20207;-70
2022/03/05 05:54:46;;;;;;;1.27;1.03;;;;;;;;;;4944310;28;20331;-69
2022/03/05 05:57:14;;;;;;;0.37;0.37;;;;;;;;;;4943556;28;20207;-70
2022/03/05 05:59:41;;;;;;;1.90;1.80;;;;;;;;;;4939565;28;20553;-72
2022/03/05 06:02:09;;;;;;;0.00;0.00;;;;;;;;;;4940814;28;20956;-70
2022/03/05 06:04:37;;;;;;;0.00;0.00;;;;;;;;;;4943077;28;20199;-71
2022/03/05 06:07:05;;;;;;;0.00;0.00;;;;;;;;;;4943436;28;20529;-71
2022/03/05 06:09:32;;;;;;;0.20;0.20;;;;;;;;;;4942705;28;20625;-72
2022/03/05 06:12:00;;;;;;;0.00;0.00;;;;;;;;;;4943618;28;20572;-71
2022/03/05 06:14:27;;;;;;;0.00;0.00;;;;;;;;;;4944611;28;20262;-70
2022/03/05 06:16:54;;;;;;;0.00;0.00;;;;;;;;;;4944385;28;20199;-71
2022/03/05 06:19:22;;;;;;;0.00;0.00;;;;;;;;;;4943945;28;21860;-71
2022/03/05 06:21:51;;;;;;;0.00;0.00;;;;;;;;;;4943427;28;20204;-69
2022/03/05 06:24:19;;;;;;;0.93;0.83;;;;;;;;;;4945775;28;20211;-71
2022/03/05 06:26:47;;;;;;;0.00;0.00;;;;;;;;;;4944024;28;20208;-71
2022/03/05 06:29:14;;;;;;;0.00;0.00;;;;;;;;;;4944937;28;20945;-72
2022/03/05 06:31:41;;;;;;;0.03;0.03;;;;;;;;;;4944128;28;20203;-70
2022/03/05 06:34:09;;;;;;;0.00;0.00;;;;;;;;;;4944726;28;20206;-71
2022/03/05 06:36:36;;;;;;;0.00;0.00;;;;;;;;;;4942997;28;20218;-72
2022/03/05 06:39:05;;;;;;;0.00;0.00;;;;;;;;;;4943291;28;20645;-70
2022/03/05 06:41:32;;;;;;;0.00;0.00;;;;;;;;;;4941733;28;20222;-71
2022/03/05 06:44:00;;;;;;;0.73;0.73;;;;;;;;;;4937015;28;20203;-71
2022/03/05 06:46:27;;;;;;;0.00;0.00;;;;;;;;;;4938973;28;20857;-71
2022/03/05 06:48:55;;;;;;;0.00;0.00;;;;;;;;;;4940903;28;20687;-71
2022/03/05 06:51:22;;;;;;;0.30;0.30;;;;;;;;;;4937661;28;20797;-71
2022/03/05 06:53:49;;;;;;;0.00;0.00;;;;;;;;;;4932748;28;20237;-70
2022/03/05 06:56:18;;;;;;;0.00;0.00;;;;;;;;;;4941295;28;20723;-70
2022/03/05 06:58:46;;;;;;;0.00;0.00;;;;;;;;;;4941630;28;20568;-70
2022/03/05 07:01:13;;;;;;;0.00;0.00;;;;;;;;;;4941996;28;20199;-70
2022/03/05 07:03:41;;;;;;;0.03;0.03;;;;;;;;;;4942591;28;20573;-70
2022/03/05 07:06:08;;;;;;;0.00;0.00;;;;;;;;;;4942820;28;20209;-70
2022/03/05 07:08:38;;;;;;;0.00;0.00;;;;;;;;;;4941769;28;20203;-71
2022/03/05 07:11:05;;;;;;;0.00;0.00;;;;;;;;;;4943195;28;20200;-71
2022/03/05 07:13:34;;;;;;;0.00;0.00;;;;;;;;;;4943647;28;20211;-70
2022/03/05 07:16:02;;;;;;;0.00;0.00;;;;;;;;;;4942537;28;20217;-70
2022/03/05 07:18:29;;;;;;;0.00;0.00;;;;;;;;;;4942678;28;20213;-69
2022/03/05 07:20:57;;;;;;;0.70;0.70;;;;;;;;;;4942480;28;20210;-71
2022/03/05 07:23:24;;;;;;;0.37;0.37;;;;;;;;;;4942038;28;20277;-72
2022/03/05 07:25:52;;;;;;;0.57;0.57;;;;;;;;;;4934585;28;20199;-70
2022/03/05 07:28:19;;;;;;;0.00;0.00;;;;;;;;;;4935286;28;20774;-71
2022/03/05 07:30:48;;;;;;;0.23;0.23;;;;;;;;;;4935045;28;20214;-72
2022/03/05 07:33:15;;;;;;;0.00;0.00;;;;;;;;;;4937458;28;20207;-72
2022/03/05 07:35:43;;;;;;;0.00;0.00;;;;;;;;;;4936352;28;20237;-70
2022/03/05 07:38:10;;;;;;;0.03;0.03;;;;;;;;;;4934215;28;20303;-70
2022/03/05 07:40:37;;;;;;;0.00;0.00;;;;;;;;;;4936481;28;20571;-71
2022/03/05 07:43:05;;;;;;;0.23;0.23;;;;;;;;;;4943268;28;20328;-72
2022/03/05 07:45:32;;;;;;;2.20;2.10;;;;;;;;;;4941672;28;20230;-72
2022/03/05 07:48:01;;;;;;;0.00;0.00;;;;;;;;;;4942192;28;20218;-70
2022/03/05 07:50:29;;;;;;;1.77;1.40;;;;;;;;;;4944121;28;22085;-72
2022/03/05 07:52:56;;;;;;;0.30;0.30;;;;;;;;;;4946665;28;20275;-70
2022/03/05 07:55:23;;;;;;;1.60;0.93;;;;;;;;;;4948906;28;20250;-73
2022/03/05 07:57:51;;;;;;;5.37;3.37;;;;;;;;;;4945788;28;20211;-71
2022/03/05 08:00:19;;;;;;;1.13;0.50;;;;;;;;;;4945224;28;20214;-72
2022/03/05 08:02:46;;;;;;;0.00;0.00;;;;;;;;;;4946364;28;20215;-73
2022/03/05 08:05:15;;;;;;;0.93;0.20;;;;;;;;;;4947382;28;20210;-70
2022/03/05 08:07:42;;;;;;;0.03;0.03;;;;;;;;;;4946120;28;20580;-71
2022/03/05 08:10:10;;;;;;;0.00;0.00;;;;;;;;;;4945194;28;21621;-73
2022/03/05 08:12:38;;;;;;;2.93;1.03;;;;;;;;;;4945532;28;20553;-73
2022/03/05 08:15:06;;;;;;;0.00;0.00;;;;;;;;;;4946574;28;20211;-74
2022/03/05 08:17:33;;;;;;;0.87;0.87;;;;;;;;;;4943499;28;20199;-72
2022/03/05 08:20:01;;;;;;;0.13;0.13;;;;;;;;;;4946301;28;20291;-74
2022/03/05 08:22:29;;;;;;;0.30;0.30;;;;;;;;;;4939864;28;20866;-69
2022/03/05 08:24:57;;;;;;;0.53;0.53;;;;;;;;;;4940151;28;20203;-71
2022/03/05 08:27:24;;;;;;;1.27;0.60;;;;;;;;;;4948180;28;20676;-72
2022/03/05 08:29:52;;;;;;;2.37;2.17;;;;;;;;;;4946563;28;20530;-72
2022/03/05 08:32:19;;;;;;;5.03;4.57;;;;;;;;;;4948774;28;20211;-71
2022/03/05 08:34:46;;;;;;;0.87;0.30;;;;;;;;;;4948557;29;20203;-73
2022/03/05 08:37:14;;;;;;;0.10;0.10;;;;;;;;;;4946647;29;20230;-73
2022/03/05 08:39:43;;;;;;;1.03;0.90;;;;;;;;;;4946572;28;20978;-72
2022/03/05 08:42:10;;;;;;;0.40;0.40;;;;;;;;;;4956847;28;20711;-72
2022/03/05 08:44:38;;;;;;;0.33;0.33;;;;;;;;;;4947008;28;20207;-72
2022/03/05 08:47:06;;;;;;;2.43;1.93;;;;;;;;;;4946144;29;20207;-73
2022/03/05 08:49:33;;;;;;;0.60;0.60;;;;;;;;;;4945700;29;20259;-75
2022/03/05 08:52:00;;;;;;;0.73;0.73;;;;;;;;;;4944417;29;20656;-76
2022/03/05 08:54:28;;;;;;;0.00;0.00;;;;;;;;;;4950804;29;20260;-75
2022/03/05 08:56:57;;;;;;;0.63;0.63;;;;;;;;;;4955103;29;20338;-75
2022/03/05 08:59:24;;;;;;;0.17;0.17;;;;;;;;;;4949390;29;20210;-75
2022/03/05 09:01:51;;;;;;;0.93;0.93;;;;;;;;;;4947135;28;20624;-75
2022/03/05 09:04:19;;;;;;;0.10;0.10;;;;;;;;;;4933458;29;20207;-74
2022/03/05 09:06:46;;;;;;;1.10;1.00;;;;;;;;;;4932459;29;20206;-75
2022/03/05 09:09:13;;;;;;;2.73;1.43;;;;;;;;;;4934476;29;20183;-75
2022/03/05 09:11:41;;;;;;;0.87;0.53;;;;;;;;;;4934761;28;20618;-75
2022/03/05 09:14:10;;;;;;;2.03;1.93;;;;;;;;;;4935832;29;20576;-75
2022/03/05 09:16:38;;;;;;;2.47;1.40;;;;;;;;;;4937553;28;20238;-74
2022/03/05 09:19:05;;;;;;;0.60;0.57;;;;;;;;;;4938548;28;20259;-75
2022/03/05 09:21:33;;;;;;;0.60;0.60;;;;;;;;;;4939603;28;20213;-72
2022/03/05 09:24:00;;;;;;;6.20;3.73;;;;;;;;;;4933493;29;20226;-74
2022/03/05 09:26:28;;;;;;;1.03;0.67;;;;;;;;;;4937516;28;20250;-74
2022/03/05 09:28:55;;;;;;;4.47;3.73;;;;;;;;;;4937928;28;20218;-74
2022/03/05 09:31:24;;;;;;;0.20;0.20;;;;;;;;;;4940176;28;20579;-75
2022/03/05 09:33:51;;;;;;;1.77;1.67;;;;;;;;;;4943909;28;20202;-74
2022/03/05 09:36:19;;;;;;;1.33;1.23;;;;;;;;;;4942842;28;20242;-74
2022/03/05 09:38:48;;;;;;;0.07;0.07;;;;;;;;;;4948352;28;20215;-74
2022/03/05 09:41:15;;;;;;;0.87;0.87;;;;;;;;;;4945781;28;20242;-74
2022/03/05 09:43:43;;;;;;;0.40;0.40;;;;;;;;;;4940790;28;20210;-75
2022/03/05 09:46:11;;;;;;;3.20;1.80;;;;;;;;;;4949575;28;20204;-74
2022/03/05 09:48:41;;;;;;;0.83;0.57;;;;;;;;;;4943499;28;20665;-73
2022/03/05 09:51:09;;;;;;;0.43;0.43;;;;;;;;;;4946966;28;20265;-73
2022/03/05 09:53:36;;;;;;;3.17;2.93;;;;;;;;;;4945904;28;20243;-73
2022/03/05 09:56:04;;;;;;;0.97;0.93;;;;;;;;;;4943096;28;20647;-73
2022/03/05 09:58:31;;;;;;;0.67;0.67;;;;;;;;;;4945968;28;20207;-71
2022/03/05 10:00:59;;;;;;;0.50;0.50;;;;;;;;;;4943229;28;20211;-72
2022/03/05 10:03:28;;;;;;;0.77;0.77;;;;;;;;;;4944618;28;20235;-73
2022/03/05 10:06:14;;;;;;;0.37;0.30;;;;;;;;;;4938868;28;20850;-75
2022/03/05 10:08:42;;;;;;;4.00;1.63;;;;;;;;;;4941216;28;20250;-71
2022/03/05 10:11:11;;;;;;;3.30;3.00;;;;;;;;;;4940441;28;20200;-71
2022/03/05 10:13:39;;;;;;;3.73;1.63;;;;;;;;;;4943255;28;20210;-71
2022/03/05 10:16:07;;;;;;;0.80;0.80;;;;;;;;;;4943672;28;20219;-72
2022/03/05 10:18:36;;;;;;;2.70;2.00;;;;;;;;;;4940386;28;20681;-73
2022/03/05 10:21:06;;;;;;;0.87;0.37;;;;;;;;;;4939208;28;20203;-72
2022/03/05 10:23:36;;;;;;;2.47;2.37;;;;;;;;;;4945147;28;20210;-73
2022/03/05 10:26:04;;;;;;;0.20;0.20;;;;;;;;;;4941932;28;20261;-71
2022/03/05 10:28:32;;;;;;;0.53;0.53;;;;;;;;;;4938366;28;20575;-74
2022/03/05 10:31:02;;;;;;;2.67;2.47;;;;;;;;;;4934309;28;20669;-72
2022/03/05 10:33:31;;;;;;;0.13;0.13;;;;;;;;;;4937480;28;20235;-72
2022/03/05 10:35:59;;;;;;;2.50;1.53;;;;;;;;;;4931492;28;20231;-73
2022/03/05 10:38:42;;;;;;;0.57;0.40;;;;;;;;;;4931217;28;20332;-72
2022/03/05 10:41:10;;;;;;;2.80;1.63;;;;;;;;;;4934858;28;20216;-73
2022/03/05 10:43:38;;;;;;;4.80;4.23;;;;;;;;;;4939751;28;20641;-74
2022/03/05 10:46:06;;;;;;;3.67;3.40;;;;;;;;;;4939092;28;20207;-74
2022/03/05 10:48:36;;;;;;;2.13;1.57;;;;;;;;;;4934713;28;20206;-73
2022/03/05 10:51:05;;;;;;;1.07;0.97;;;;;;;;;;4933016;28;20254;-71
2022/03/05 10:53:43;;;;;;;2.53;2.03;;;;;;;;;;4941549;28;20242;-71
2022/03/05 10:56:28;;;;;;;1.47;0.80;;;;;;;;;;4945074;28;20580;-71
2022/03/05 10:59:04;;;;;;;6.10;4.57;;;;;;;;;;4939141;28;20216;-72
2022/03/05 11:01:32;;;;;;;1.43;1.07;;;;;;;;;;4937031;28;20213;-71
2022/03/05 11:03:59;;;;;;;2.00;1.23;;;;;;;;;;4943836;28;20245;-71
2022/03/05 11:06:28;;;;;;;2.53;2.20;;;;;;;;;;4947974;28;20583;-71
2022/03/05 11:08:56;;;;;;;0.93;0.93;;;;;;;;;;4951425;28;20274;-72
2022/03/05 11:11:23;;;;;;;4.43;3.23;;;;;;;;;;4947075;28;20297;-70
2022/03/05 11:13:52;;;;;;;1.50;1.40;;;;;;;;;;4940983;28;20246;-75
2022/03/05 11:16:21;;;;;;;0.30;0.20;;;;;;;;;;4941849;28;20249;-72
2022/03/05 11:18:49;;;;;;;6.57;3.07;;;;;;;;;;4941389;29;20261;-73
2022/03/05 11:21:16;;;;;;;1.80;1.63;;;;;;;;;;4943244;28;20202;-72
2022/03/05 11:23:45;;;;;;;0.50;0.50;;;;;;;;;;4941552;28;20199;-72
2022/03/05 11:26:13;;;;;;;2.73;1.97;;;;;;;;;;4938569;28;20199;-72
2022/03/05 11:28:41;;;;;;;2.27;1.10;;;;;;;;;;4942922;28;20207;-71
2022/03/05 11:31:17;;;;;;;1.53;1.43;;;;;;;;;;4941708;28;20370;-74
2022/03/05 11:33:45;;;;;;;1.23;0.97;;;;;;;;;;4937742;28;20210;-72
2022/03/05 11:36:30;;;;;;;2.87;2.67;;;;;;;;;;4943855;28;20747;-73
2022/03/05 11:39:14;;;;;;;7.97;4.57;;;;;;;;;;4941761;28;20202;-71
2022/03/05 11:41:52;;;;;;;0.00;0.00;;;;;;;;;;4941317;28;20206;-73
2022/03/05 11:44:20;;;;;;;6.87;3.93;;;;;;;;;;4944000;28;20571;-74
2022/03/05 11:46:49;;;;;;;2.87;2.23;;;;;;;;;;4940248;28;20226;-72
2022/03/05 11:49:17;;;;;;;0.30;0.27;;;;;;;;;;4944520;28;20203;-72
2022/03/05 11:51:54;;;;;;;2.20;1.50;;;;;;;;;;4951210;28;20203;-74
2022/03/05 11:54:22;;;;;;;0.90;0.90;;;;;;;;;;4948820;28;20242;-74
2022/03/05 11:57:08;;;;;;;3.30;2.27;;;;;;;;;;4943594;28;20239;-72
2022/03/05 11:59:36;;;;;;;0.47;0.47;;;;;;;;;;4934666;28;20199;-72
2022/03/05 12:02:06;;;;;;;3.87;3.37;;;;;;;;;;4932341;28;20201;-71
2022/03/05 12:04:33;;;;;;;3.27;2.03;;;;;;;;;;4939438;28;20219;-72
2022/03/05 12:07:02;;;;;;;11.53;3.97;;;;;;;;;;4931806;28;20202;-72
2022/03/05 12:09:33;;;;;;;2.77;2.10;;;;;;;;;;4935466;28;20223;-72
2022/03/05 12:12:01;;;;;;;9.03;3.93;;;;;;;;;;4933746;28;20207;-70
2022/03/05 12:14:47;;;;;;;1.43;1.33;;;;;;;;;;4932128;28;20642;-70
2022/03/05 12:17:21;;;;;;;1.50;1.07;;;;;;;;;;4937700;28;20285;-72
2022/03/05 12:19:48;;;;;;;0.67;0.60;;;;;;;;;;4935841;28;20248;-71
2022/03/05 12:22:16;;;;;;;0.70;0.70;;;;;;;;;;4934925;28;20199;-70
2022/03/05 12:24:44;;;;;;;3.83;3.53;;;;;;;;;;4935178;28;20199;-71
2022/03/05 12:27:14;;;;;;;1.90;1.17;;;;;;;;;;4931256;28;20211;-70
2022/03/05 12:29:47;;;;;;;1.13;1.03;;;;;;;;;;4934629;28;20199;-69
2022/03/05 12:32:16;;;;;;;1.00;1.00;;;;;;;;;;4930777;28;21111;-71
2022/03/05 12:34:44;;;;;;;1.20;1.13;;;;;;;;;;4933934;28;20200;-71
2022/03/05 12:37:12;;;;;;;0.33;0.17;;;;;;;;;;4938662;28;21133;-71
2022/03/05 12:39:43;;;;;;;1.73;1.70;;;;;;;;;;4951779;28;22211;-70
2022/03/05 12:42:10;;;;;;;2.97;2.63;;;;;;;;;;4953520;28;20207;-71
2022/03/05 12:44:38;;;;;;;2.50;1.75;;;;;;;;;;4950450;28;20203;-71
2022/03/05 12:47:06;;;;;;;0.80;0.80;;;;;;;;;;4941738;28;20218;-71
2022/03/05 12:49:35;;;;;;;0.20;0.20;;;;;;;;;;4939193;28;20540;-71
2022/03/05 12:52:02;;;;;;;0.43;0.43;;;;;;;;;;4949733;28;20235;-71
2022/03/05 12:54:29;;;;;;;0.50;0.50;;;;;;;;;;4951984;28;20235;-71
2022/03/05 12:56:57;;;;;;;1.45;1.35;;;;;;;;;;4938502;28;20240;-71
2022/03/05 12:59:25;;;;;;;1.13;0.95;;;;;;;;;;4942637;28;20210;-70
2022/03/05 13:01:52;;;;;;;1.80;1.55;;;;;;;;;;4940442;28;20207;-70
2022/03/05 13:04:20;;;;;;;0.50;0.20;;;;;;;;;;4943930;28;20214;-71
2022/03/05 13:06:49;;;;;;;1.25;0.85;;;;;;;;;;4945851;28;20203;-70
2022/03/05 13:09:16;;;;;;;0.17;0.17;;;;;;;;;;4947015;28;20199;-69
2022/03/05 13:11:44;;;;;;;1.05;0.95;;;;;;;;;;4948136;28;20200;-68
2022/03/05 13:14:12;;;;;;;1.38;1.27;;;;;;;;;;4949412;28;20221;-69
2022/03/05 13:16:41;;;;;;;1.65;1.55;;;;;;;;;;4947070;28;20207;-71
2022/03/05 13:19:09;;;;;;;1.42;0.98;;;;;;;;;;4944988;28;20668;-68
2022/03/05 13:21:39;;;;;;;0.65;0.65;;;;;;;;;;4949625;28;20203;-70
2022/03/05 13:24:09;;;;;;;1.15;0.80;;;;;;;;;;4941825;28;20206;-70
2022/03/05 13:26:38;;;;;;;0.10;0.10;;;;;;;;;;4936422;28;20199;-69
2022/03/05 13:29:06;;;;;;;0.47;0.47;;;;;;;;;;4936719;28;20238;-70
2022/03/05 13:31:33;;;;;;;1.17;1.10;;;;;;;;;;4936068;28;20206;-68
2022/03/05 13:34:02;;;;;;;2.15;2.05;;;;;;;;;;4942067;28;20203;-69
2022/03/05 13:36:30;;;;;;;1.40;1.33;;;;;;;;;;4937650;28;20748;-68
2022/03/05 13:39:02;;;;;;;0.10;0.10;;;;;;;;;;4935828;28;20199;-70
2022/03/05 13:41:31;;;;;;;0.13;0.13;;;;;;;;;;4938149;28;20214;-71
2022/03/05 13:44:01;;;;;;;2.20;1.40;;;;;;;;;;4936776;28;20211;-72
2022/03/05 13:46:29;;;;;;;4.00;2.77;;;;;;;;;;4934944;28;20237;-69
2022/03/05 13:48:58;;;;;;;3.20;2.07;;;;;;;;;;4937664;28;20195;-70
2022/03/05 13:51:26;;;;;;;0.20;0.20;;;;;;;;;;4935284;28;20203;-70
2022/03/05 13:53:56;;;;;;;0.22;0.22;;;;;;;;;;4944322;28;20249;-70
2022/03/05 13:56:24;;;;;;;2.85;2.05;;;;;;;;;;4947782;28;20195;-71
2022/03/05 13:58:56;;;;;;;3.03;2.42;;;;;;;;;;4948459;28;20242;-70
2022/03/05 14:01:31;;;;;;;1.55;1.50;;;;;;;;;;4948529;28;20203;-72
2022/03/05 14:04:14;;;;;;;0.65;0.52;;;;;;;;;;4948123;28;20201;-70
2022/03/05 14:06:59;;;;;;;0.98;0.98;;;;;;;;;;4937539;28;20808;-71
2022/03/05 14:09:31;;;;;;;2.70;1.03;;;;;;;;;;4946992;28;20661;-71
2022/03/05 14:12:17;;;;;;;0.13;0.13;;;;;;;;;;4948080;28;20203;-71
2022/03/05 14:14:50;;;;;;;1.23;1.20;;;;;;;;;;4944357;28;20320;-71
2022/03/05 14:17:28;;;;;;;1.55;1.10;;;;;;;;;;4941758;28;20373;-70
2022/03/05 14:20:09;;;;;;;1.40;1.13;;;;;;;;;;4936332;28;20191;-71
2022/03/05 14:22:37;;;;;;;1.70;0.77;;;;;;;;;;4944286;28;20202;-70
2022/03/05 14:25:06;;;;;;;0.22;0.22;;;;;;;;;;4949968;28;20199;-70
2022/03/05 14:27:33;;;;;;;2.60;1.50;;;;;;;;;;4949050;28;20208;-71
2022/03/05 14:30:02;;;;;;;6.47;3.60;;;;;;;;;;4946134;28;20206;-71
2022/03/05 14:32:29;;;;;;;1.53;1.37;;;;;;;;;;4949961;28;20210;-71
2022/03/05 14:34:57;;;;;;;0.30;0.30;;;;;;;;;;4944584;28;20194;-72
2022/03/05 14:37:24;;;;;;;1.57;0.83;;;;;;;;;;4938352;28;20223;-69
2022/03/05 14:39:52;;;;;;;0.20;0.20;;;;;;;;;;4944288;28;20206;-71
2022/03/05 14:42:19;;;;;;;4.50;1.60;;;;;;;;;;4942313;28;20215;-72
2022/03/05 14:44:49;;;;;;;0.80;0.80;;;;;;;;;;4949081;28;20198;-72
2022/03/05 14:47:18;;;;;;;3.37;1.60;;;;;;;;;;4946147;28;20280;-71
2022/03/05 14:49:45;;;;;;;0.23;0.23;;;;;;;;;;4939966;28;20289;-71